Terminal Aerodrome Forecast
Issued by NWS

Home | Current Version | Previous Version | Text Only | Print | Product List | Glossary On
Versions: 1 2 3 4 5 6 7 8 9 10 11 12 13 14 15 16 17 18 19 20 21 22 23 24 25 26 27 28
000
FTUS41 KOKX 230009 RRA
TAFGON
TAF
KGON 230009Z 2300/2324 07010KT 6SM BR OVC013
     FM230200 08008KT 3SM BR OVC008
     FM230800 13007KT 2SM BR VCSH OVC004 WS020/20035KT
     FM231200 17011G20KT 3SM SHRA BR OVC008 WS020/20040KT
     FM231400 18015G24KT 3SM SHRA BR OVC008 WS020/20050KT
     FM232100 22015G24KT 4SM BR VCSH OVC010
     FM232300 26011G20KT P6SM BKN040=

USA.gov is the U.S. government's official web portal to all federal, state and local government web resources and services.